createdAt,value
2018-09-17T00:01:20.832Z,101495.69
2018-09-17T00:03:49.695Z,101493.47
2018-09-17T00:06:18.576Z,101498.97
2018-09-17T00:08:47.439Z,101499.97
2018-09-17T00:11:16.343Z,101491.16
2018-09-17T00:13:45.193Z,101494.31
2018-09-17T00:16:14.109Z,101493.18
2018-09-17T00:18:42.972Z,101489.00
2018-09-17T00:21:11.858Z,101498.76
2018-09-17T00:23:40.839Z,101494.91
2018-09-17T00:26:09.687Z,101488.73
2018-09-17T00:28:38.546Z,101477.77
2018-09-17T00:31:07.465Z,101478.30
2018-09-17T00:33:36.335Z,101472.26
2018-09-17T00:36:05.215Z,101467.24
2018-09-17T00:38:34.106Z,101467.47
2018-09-17T00:41:02.948Z,101472.56
2018-09-17T00:43:31.805Z,101475.28
2018-09-17T00:46:00.685Z,101478.87
2018-09-17T00:48:29.535Z,101482.59
2018-09-17T00:50:58.433Z,101468.03
2018-09-17T00:53:27.286Z,101466.61
2018-09-17T00:55:56.135Z,101459.44
2018-09-17T00:58:24.980Z,101451.84
2018-09-17T01:00:53.842Z,101450.30
2018-09-17T01:03:22.729Z,101439.61
2018-09-17T01:05:51.608Z,101435.03
2018-09-17T01:08:20.465Z,101446.73
2018-09-17T01:10:49.308Z,101447.28
2018-09-17T01:13:18.195Z,101437.07
2018-09-17T01:15:47.043Z,101440.20
2018-09-17T01:18:15.960Z,101443.51
2018-09-17T01:20:44.796Z,101448.66
2018-09-17T01:23:13.657Z,101440.80
2018-09-17T01:25:42.590Z,101446.02
2018-09-17T01:28:11.446Z,101436.77
2018-09-17T01:30:40.309Z,101431.95
2018-09-17T01:33:09.233Z,101424.23
2018-09-17T01:35:38.181Z,101425.50
2018-09-17T01:38:07.116Z,101423.37
2018-09-17T01:40:36.001Z,101422.88
2018-09-17T01:43:04.882Z,101432.77
2018-09-17T01:45:33.833Z,101434.13
2018-09-17T01:48:02.649Z,101431.90
2018-09-17T01:50:31.533Z,101438.25
2018-09-17T01:53:00.421Z,101434.97
2018-09-17T01:55:29.313Z,101428.81
2018-09-17T01:57:58.201Z,101429.38
2018-09-17T02:00:27.082Z,101431.61
2018-09-17T02:02:56.046Z,101433.11
2018-09-17T02:05:24.875Z,101439.21
2018-09-17T02:07:53.754Z,101450.48
2018-09-17T02:10:22.634Z,101450.66
2018-09-17T02:12:51.465Z,101456.94
2018-09-17T02:15:20.349Z,101454.42
2018-09-17T02:17:49.241Z,101459.76
2018-09-17T02:20:18.119Z,101457.67
2018-09-17T02:22:46.987Z,101463.77
2018-09-17T02:25:15.845Z,101463.81
2018-09-17T02:27:44.724Z,101456.84
2018-09-17T02:30:13.569Z,101464.44
2018-09-17T02:32:42.441Z,101475.08
2018-09-17T02:35:11.267Z,101474.56
2018-09-17T02:37:40.147Z,101472.76
2018-09-17T02:40:15.341Z,101483.07
2018-09-17T02:42:45.371Z,101476.59
2018-09-17T02:45:14.412Z,101466.75
2018-09-17T02:47:43.277Z,101461.22
2018-09-17T02:50:12.094Z,101468.68
2018-09-17T02:52:41.126Z,101466.26
2018-09-17T02:55:10.064Z,101465.31
2018-09-17T02:57:38.990Z,101469.63
2018-09-17T03:00:09.042Z,101456.27
2018-09-17T03:02:38.150Z,101454.73
2018-09-17T03:05:07.180Z,101460.61
2018-09-17T03:07:36.111Z,101461.11
2018-09-17T03:10:04.969Z,101459.75
2018-09-17T03:12:33.907Z,101458.89
2018-09-17T03:15:39.152Z,101465.09
2018-09-17T03:18:08.031Z,101462.21
2018-09-17T03:20:36.883Z,101450.80
2018-09-17T03:23:05.790Z,101457.04
2018-09-17T03:25:34.641Z,101456.17
2018-09-17T03:28:03.558Z,101461.48
2018-09-17T03:30:32.465Z,101468.41
2018-09-17T03:33:01.305Z,101466.92
2018-09-17T03:35:30.142Z,101467.22
2018-09-17T03:38:50.192Z,101464.46
2018-09-17T03:41:20.075Z,101462.67
2018-09-17T03:43:50.397Z,101460.91
2018-09-17T03:46:19.366Z,101452.37
2018-09-17T03:48:51.147Z,101455.95
2018-09-17T03:51:20.087Z,101450.23
2018-09-17T03:53:48.890Z,101446.97
2018-09-17T03:56:17.781Z,101446.30
2018-09-17T03:58:46.686Z,101443.87
2018-09-17T04:01:15.568Z,101446.02
2018-09-17T04:03:44.444Z,101447.37
2018-09-17T04:06:13.313Z,101448.88
2018-09-17T04:08:42.165Z,101437.27
2018-09-17T04:11:11.037Z,101442.80
2018-09-17T04:13:39.970Z,101446.60
2018-09-17T04:16:08.819Z,101445.44
2018-09-17T04:18:37.699Z,101441.58
2018-09-17T04:21:06.679Z,101448.24
2018-09-17T04:23:36.739Z,101443.66
2018-09-17T04:26:09.867Z,101445.61
2018-09-17T04:28:39.243Z,101451.46
2018-09-17T04:31:08.036Z,101448.81
2018-09-17T04:33:43.636Z,101448.97
2018-09-17T04:36:13.288Z,101447.61
2018-09-17T04:38:42.201Z,101454.91
2018-09-17T04:41:11.059Z,101459.40
2018-09-17T04:43:39.943Z,101466.69
2018-09-17T04:46:08.886Z,101468.03
2018-09-17T04:48:37.771Z,101465.02
2018-09-17T04:51:06.535Z,101458.92
2018-09-17T04:53:35.392Z,101452.73
2018-09-17T04:56:04.270Z,101459.12
2018-09-17T04:58:33.204Z,101468.22
2018-09-17T05:01:02.096Z,101468.74
2018-09-17T05:03:30.977Z,101470.36
2018-09-17T05:05:59.829Z,101473.05
2018-09-17T05:08:28.764Z,101473.35
2018-09-17T05:10:57.703Z,101481.08
2018-09-17T05:13:26.737Z,101474.27
2018-09-17T05:15:55.495Z,101475.14
2018-09-17T05:18:24.400Z,101481.70
2018-09-17T05:20:53.280Z,101476.69
2018-09-17T05:23:22.160Z,101478.87
2018-09-17T05:25:50.985Z,101483.60
2018-09-17T05:28:19.945Z,101484.64
2018-09-17T05:30:48.885Z,101480.50
2018-09-17T05:33:17.744Z,101482.69
2018-09-17T05:35:46.613Z,101478.69
2018-09-17T05:38:15.453Z,101483.05
2018-09-17T05:40:44.340Z,101478.61
2018-09-17T05:43:13.206Z,101483.73
2018-09-17T05:45:42.147Z,101483.86
2018-09-17T05:48:11.016Z,101490.09
2018-09-17T05:50:39.905Z,101493.89
2018-09-17T05:53:08.813Z,101494.45
2018-09-17T05:55:37.705Z,101488.31
2018-09-17T05:58:06.607Z,101490.36
2018-09-17T06:00:35.483Z,101487.50
2018-09-17T06:03:04.994Z,101484.59
2018-09-17T06:05:34.168Z,101483.36
2018-09-17T06:08:18.198Z,101477.69
2018-09-17T06:10:47.119Z,101475.31
2018-09-17T06:13:15.979Z,101478.55
2018-09-17T06:15:44.831Z,101480.97
2018-09-17T06:18:13.714Z,101476.94
2018-09-17T06:20:43.651Z,101482.84
2018-09-17T06:23:12.572Z,101486.80
2018-09-17T06:25:41.467Z,101487.08
2018-09-17T06:28:10.355Z,101486.93
2018-09-17T06:30:39.297Z,101489.62
2018-09-17T06:33:08.160Z,101502.00
2018-09-17T06:35:37.065Z,101492.75
2018-09-17T06:38:05.969Z,101496.95
2018-09-17T06:40:34.934Z,101498.28
2018-09-17T06:43:03.823Z,101492.42
2018-09-17T06:45:32.774Z,101501.63
2018-09-17T06:48:01.694Z,101491.86
2018-09-17T06:50:30.586Z,101494.19
2018-09-17T06:52:59.457Z,101487.34
2018-09-17T06:55:28.304Z,101491.10
2018-09-17T06:57:57.228Z,101491.34
2018-09-17T07:00:26.138Z,101492.17
2018-09-17T07:02:54.976Z,101491.52
2018-09-17T07:05:23.857Z,101491.72
2018-09-17T07:07:52.717Z,101487.47
2018-09-17T07:10:21.608Z,101485.85
2018-09-17T07:12:50.516Z,101489.06
2018-09-17T07:15:19.924Z,101489.29
2018-09-17T07:17:48.780Z,101494.80
2018-09-17T07:20:17.653Z,101493.68
2018-09-17T07:22:46.615Z,101500.84
2018-09-17T07:25:15.506Z,101503.22
2018-09-17T07:27:44.469Z,101499.70
2018-09-17T07:30:13.364Z,101506.41
2018-09-17T07:32:42.229Z,101510.23
2018-09-17T07:35:11.149Z,101513.12
2018-09-17T07:37:40.057Z,101506.31
2018-09-17T07:40:09.011Z,101505.52
2018-09-17T07:42:37.995Z,101511.19
2018-09-17T07:45:07.297Z,101516.49
2018-09-17T07:47:36.287Z,101515.47
2018-09-17T07:50:05.357Z,101514.62
2018-09-17T07:52:34.245Z,101516.86
2018-09-17T07:55:03.152Z,101510.86
2018-09-17T07:57:32.074Z,101513.77
2018-09-17T08:00:00.963Z,101516.00
2018-09-17T08:02:29.851Z,101514.77
2018-09-17T08:04:58.784Z,101519.82
2018-09-17T08:07:27.697Z,101522.10
2018-09-17T08:09:56.631Z,101517.59
2018-09-17T08:12:25.529Z,101513.34
2018-09-17T08:14:54.486Z,101512.47
2018-09-17T08:17:23.332Z,101519.40
2018-09-17T08:19:52.316Z,101506.73
2018-09-17T08:22:21.170Z,101508.34
2018-09-17T08:24:50.136Z,101513.78
2018-09-17T08:27:18.936Z,101513.27
2018-09-17T08:29:47.837Z,101517.16
2018-09-17T08:32:16.689Z,101514.39
2018-09-17T08:34:45.551Z,101518.23
2018-09-17T08:37:14.430Z,101520.28
2018-09-17T08:39:43.312Z,101517.39
2018-09-17T08:42:12.219Z,101517.92
2018-09-17T08:44:41.107Z,101523.44
2018-09-17T08:47:10.068Z,101522.19
2018-09-17T08:49:38.944Z,101519.34
2018-09-17T08:52:07.846Z,101523.78
2018-09-17T08:54:55.797Z,101516.49
2018-09-17T08:57:42.341Z,101509.33
2018-09-17T09:00:20.796Z,101512.08
2018-09-17T09:02:50.497Z,101507.55
2018-09-17T09:05:34.543Z,101499.79
2018-09-17T09:08:03.417Z,101497.14
2018-09-17T09:10:48.528Z,101500.77
2018-09-17T09:13:34.409Z,101496.70
2018-09-17T09:16:04.883Z,101502.86
2018-09-17T09:18:33.792Z,101497.16
2018-09-17T09:21:02.675Z,101498.12
2018-09-17T09:23:31.552Z,101498.56
2018-09-17T09:26:00.474Z,101491.81
2018-09-17T09:28:29.419Z,101489.42
2018-09-17T09:30:58.346Z,101491.48
2018-09-17T09:33:27.375Z,101486.94
2018-09-17T09:35:56.317Z,101485.19
2018-09-17T09:38:25.329Z,101488.55
2018-09-17T09:40:54.336Z,101486.62
2018-09-17T09:43:23.325Z,101490.42
2018-09-17T09:45:52.408Z,101485.30
2018-09-17T09:48:21.412Z,101487.17
2018-09-17T09:50:50.414Z,101485.43
2018-09-17T09:53:19.301Z,101466.55
2018-09-17T09:55:48.368Z,101485.89
2018-09-17T09:58:17.307Z,101483.34
2018-09-17T10:01:03.981Z,101479.70
2018-09-17T10:03:45.598Z,101476.25
2018-09-17T10:06:15.895Z,101477.25
2018-09-17T10:09:02.386Z,101471.02
2018-09-17T10:11:52.269Z,101477.23
2018-09-17T10:14:38.843Z,101474.32
2018-09-17T10:17:25.603Z,101466.62
2018-09-17T10:19:54.594Z,101462.67
2018-09-17T10:22:23.433Z,101459.55
2018-09-17T10:24:52.360Z,101462.48
2018-09-17T10:27:21.234Z,101455.95
2018-09-17T10:29:50.216Z,101459.38
2018-09-17T10:32:19.065Z,101451.62
2018-09-17T10:34:47.953Z,101453.58
2018-09-17T10:37:16.962Z,101451.37
2018-09-17T10:39:45.878Z,101445.98
2018-09-17T10:42:14.795Z,101445.28
2018-09-17T10:44:43.714Z,101441.70
2018-09-17T10:47:12.775Z,101447.81
2018-09-17T10:49:41.722Z,101437.60
2018-09-17T10:52:10.647Z,101445.80
2018-09-17T10:54:39.557Z,101433.05
2018-09-17T10:57:08.397Z,101429.45
2018-09-17T10:59:37.288Z,101425.80
2018-09-17T11:02:06.206Z,101429.56
2018-09-17T11:04:35.128Z,101424.13
2018-09-17T11:07:04.084Z,101418.37
2018-09-17T11:09:33.308Z,101417.59
2018-09-17T11:12:02.159Z,101414.78
2018-09-17T11:14:31.094Z,101407.41
2018-09-17T11:17:00.080Z,101405.58
2018-09-17T11:19:28.972Z,101407.73
2018-09-17T11:21:57.896Z,101405.83
2018-09-17T11:24:26.867Z,101403.38
2018-09-17T11:26:55.849Z,101401.97
2018-09-17T11:29:24.659Z,101404.98
2018-09-17T11:31:53.561Z,101407.31
2018-09-17T11:34:22.444Z,101411.55
2018-09-17T11:36:51.350Z,101404.48
2018-09-17T11:39:20.252Z,101407.28
2018-09-17T11:41:49.243Z,101402.52
2018-09-17T11:44:18.186Z,101403.98
2018-09-17T11:46:47.051Z,101402.60
2018-09-17T11:49:16.009Z,101411.44
2018-09-17T11:51:44.870Z,101403.00
2018-09-17T11:54:13.772Z,101386.92
2018-09-17T11:56:42.678Z,101392.80
2018-09-17T11:59:11.614Z,101398.11
2018-09-17T12:01:58.341Z,101391.75
2018-09-17T12:04:44.951Z,101390.16
2018-09-17T12:07:31.437Z,101390.22
2018-09-17T12:10:00.379Z,101387.19
2018-09-17T12:12:29.385Z,101384.17
2018-09-17T12:14:58.378Z,101385.86
2018-09-17T12:17:27.424Z,101376.75
2018-09-17T12:19:56.954Z,101377.03
2018-09-17T12:22:26.038Z,101372.45
2018-09-17T12:24:55.002Z,101371.69
2018-09-17T12:27:23.967Z,101367.78
2018-09-17T12:29:52.902Z,101365.23
2018-09-17T12:32:21.968Z,101363.19
2018-09-17T12:34:50.823Z,101359.17
2018-09-17T12:37:19.750Z,101358.82
2018-09-17T12:39:48.708Z,101349.16
2018-09-17T12:42:17.677Z,101354.38
2018-09-17T12:44:46.526Z,101349.64
2018-09-17T12:47:15.394Z,101348.27
2018-09-17T12:49:44.263Z,101348.31
2018-09-17T12:52:13.215Z,101344.67
2018-09-17T12:54:42.147Z,101337.33
2018-09-17T12:57:11.092Z,101335.94
2018-09-17T12:59:39.941Z,101345.94
2018-09-17T13:02:08.867Z,101336.27
2018-09-17T13:04:37.743Z,101334.39
2018-09-17T13:07:06.723Z,101329.04
2018-09-17T13:09:35.705Z,101320.17
2018-09-17T13:12:07.459Z,101330.68
2018-09-17T13:14:36.355Z,101322.22
2018-09-17T13:17:05.439Z,101318.74
2018-09-17T13:19:34.281Z,101317.92
2018-09-17T13:22:03.245Z,101313.97
2018-09-17T13:24:32.232Z,101324.61
2018-09-17T13:27:01.157Z,101315.17
2018-09-17T13:29:30.112Z,101312.78
2018-09-17T13:31:59.106Z,101305.70
2018-09-17T13:34:27.992Z,101303.41
2018-09-17T13:36:56.877Z,101299.15
2018-09-17T13:39:26.562Z,101299.15
2018-09-17T13:41:55.476Z,101297.89
2018-09-17T13:44:24.489Z,101290.84
2018-09-17T13:46:53.429Z,101289.83
2018-09-17T13:49:22.283Z,101283.53
2018-09-17T13:51:51.150Z,101288.24
2018-09-17T13:54:20.052Z,101280.86
2018-09-17T13:56:48.998Z,101286.56
2018-09-17T13:59:17.910Z,101284.20
2018-09-17T14:01:46.836Z,101269.76
2018-09-17T14:04:15.774Z,101275.70
2018-09-17T14:06:44.595Z,101264.67
2018-09-17T14:09:13.975Z,101268.61
2018-09-17T14:11:42.904Z,101264.08
2018-09-17T14:14:11.762Z,101261.00
2018-09-17T14:16:40.658Z,101261.27
2018-09-17T14:19:09.577Z,101255.34
2018-09-17T14:21:38.489Z,101255.11
2018-09-17T14:24:07.432Z,101260.21
2018-09-17T14:26:36.337Z,101251.69
2018-09-17T14:29:06.952Z,101242.38
2018-09-17T14:31:53.783Z,101243.00
2018-09-17T14:34:22.659Z,101241.50
2018-09-17T14:36:51.561Z,101238.88
2018-09-17T14:39:20.469Z,101231.29
2018-09-17T14:41:49.347Z,101229.33
2018-09-17T14:44:18.251Z,101224.88
2018-09-17T14:46:47.167Z,101226.84
2018-09-17T14:49:16.109Z,101224.14
2018-09-17T14:51:45.009Z,101218.39
2018-09-17T14:54:13.968Z,101215.56
2018-09-17T14:56:42.731Z,101207.94
2018-09-17T14:59:11.621Z,101209.89
2018-09-17T15:01:40.721Z,101211.67
2018-09-17T15:04:09.450Z,101200.09
2018-09-17T15:06:38.246Z,101197.26
2018-09-17T15:09:08.481Z,101188.06
2018-09-17T15:11:37.341Z,101188.30
2018-09-17T15:14:06.347Z,101180.45
2018-09-17T15:16:35.183Z,101179.95
2018-09-17T15:19:04.070Z,101185.61
2018-09-17T15:21:32.960Z,101174.58
2018-09-17T15:24:02.012Z,101173.25
2018-09-17T15:26:30.814Z,101168.85
2018-09-17T15:28:59.704Z,101166.61
2018-09-17T15:31:28.612Z,101168.84
2018-09-17T15:33:57.504Z,101166.77
2018-09-17T15:36:26.520Z,101168.70
2018-09-17T15:38:55.417Z,101160.67
2018-09-17T15:41:24.549Z,101157.28
2018-09-17T15:43:53.268Z,101161.67
2018-09-17T15:46:22.190Z,101157.38
2018-09-17T15:48:51.127Z,101154.64
2018-09-17T15:51:19.925Z,101153.56
2018-09-17T15:53:48.830Z,101147.80
2018-09-17T15:56:17.714Z,101146.52
2018-09-17T15:58:46.689Z,101136.39
2018-09-17T16:01:15.510Z,101135.85
2018-09-17T16:03:44.420Z,101140.25
2018-09-17T16:06:13.391Z,101136.00
2018-09-17T16:08:42.341Z,101126.38
2018-09-17T16:11:11.191Z,101123.20
2018-09-17T16:13:40.080Z,101121.59
2018-09-17T16:16:09.033Z,101124.68
2018-09-17T16:18:37.918Z,101122.36
2018-09-17T16:21:06.825Z,101122.22
2018-09-17T16:23:35.698Z,101119.75
2018-09-17T16:26:04.600Z,101120.52
2018-09-17T16:28:33.512Z,101121.16
2018-09-17T16:31:02.501Z,101123.20
2018-09-17T16:33:31.529Z,101120.52
2018-09-17T16:36:00.300Z,101122.75
2018-09-17T16:38:29.189Z,101123.39
2018-09-17T16:40:58.098Z,101125.22
2018-09-17T16:43:26.961Z,101125.73
2018-09-17T16:45:55.828Z,101118.64
2018-09-17T16:48:24.705Z,101117.45
2018-09-17T16:50:53.590Z,101116.44
2018-09-17T16:53:22.641Z,101110.87
2018-09-17T16:55:51.436Z,101116.22
2018-09-17T16:58:20.364Z,101114.16
2018-09-17T17:00:49.467Z,101116.37
2018-09-17T17:03:18.306Z,101115.83
2018-09-17T17:05:47.297Z,101111.17
2018-09-17T17:08:16.171Z,101110.38
2018-09-17T17:10:45.135Z,101109.80
2018-09-17T17:13:13.974Z,101115.98
2018-09-17T17:15:47.341Z,101109.98
2018-09-17T17:18:17.025Z,101104.59
2018-09-17T17:20:46.439Z,101106.59
2018-09-17T17:23:15.339Z,101107.46
2018-09-17T17:25:44.234Z,101111.52
2018-09-17T17:28:13.149Z,101114.51
2018-09-17T17:30:41.956Z,101104.51
2018-09-17T17:33:10.886Z,101108.02
2018-09-17T17:35:39.815Z,101104.19
2018-09-17T17:38:08.686Z,101100.11
2018-09-17T17:40:37.779Z,101097.72
2018-09-17T17:43:06.498Z,101097.00
2018-09-17T17:45:35.357Z,101092.94
2018-09-17T17:48:04.247Z,101090.05
2018-09-17T17:50:33.130Z,101098.92
2018-09-17T17:53:02.050Z,101087.81
2018-09-17T17:55:30.997Z,101095.00
2018-09-17T17:58:00.023Z,101095.98
2018-09-17T18:00:28.742Z,101095.38
2018-09-17T18:02:57.604Z,101095.95
2018-09-17T18:05:26.487Z,101096.74
2018-09-17T18:07:55.349Z,101089.42
2018-09-17T18:10:24.213Z,101082.95
2018-09-17T18:12:53.070Z,101082.84
2018-09-17T18:15:22.106Z,101091.36
2018-09-17T18:17:50.932Z,101089.47
2018-09-17T18:20:19.816Z,101093.88
2018-09-17T18:22:48.666Z,101089.80
2018-09-17T18:25:17.545Z,101091.85
2018-09-17T18:27:46.426Z,101087.07
2018-09-17T18:30:15.296Z,101086.44
2018-09-17T18:32:44.194Z,101090.70
2018-09-17T18:35:13.020Z,101091.77
2018-09-17T18:37:41.900Z,101088.81
2018-09-17T18:40:10.788Z,101086.72
2018-09-17T18:42:39.725Z,101083.58
2018-09-17T18:45:08.627Z,101080.87
2018-09-17T18:47:37.462Z,101083.63
2018-09-17T18:50:06.317Z,101080.34
2018-09-17T18:52:35.143Z,101075.13
2018-09-17T18:55:04.076Z,101069.86
2018-09-17T18:57:32.936Z,101076.80
2018-09-17T19:00:01.819Z,101068.52
2018-09-17T19:02:30.762Z,101072.97
2018-09-17T19:04:59.606Z,101070.45
2018-09-17T19:07:28.464Z,101075.17
2018-09-17T19:09:57.358Z,101072.13
2018-09-17T19:12:26.576Z,101071.36
2018-09-17T19:15:13.097Z,101066.65
2018-09-17T19:17:42.563Z,101064.80
2018-09-17T19:20:12.430Z,101054.95
2018-09-17T19:22:58.938Z,101056.11
2018-09-17T19:25:27.803Z,101056.77
2018-09-17T19:28:14.787Z,101057.16
2018-09-17T19:30:43.527Z,101053.28
2018-09-17T19:33:12.394Z,101057.94
2018-09-17T19:35:41.358Z,101049.33
2018-09-17T19:38:28.169Z,101053.81
2018-09-17T19:40:57.027Z,101052.62
2018-09-17T19:43:25.928Z,101049.23
2018-09-17T19:46:12.563Z,101055.41
2018-09-17T19:48:41.466Z,101049.57
2018-09-17T19:51:27.993Z,101047.84
2018-09-17T19:53:57.000Z,101040.56
2018-09-17T19:56:25.863Z,101046.80
2018-09-17T19:59:12.368Z,101047.60
2018-09-17T20:01:41.253Z,101041.84
2018-09-17T20:04:28.069Z,101045.50
2018-09-17T20:06:57.041Z,101041.25
2018-09-17T20:09:25.939Z,101039.24
2018-09-17T20:11:54.820Z,101042.53
2018-09-17T20:14:23.687Z,101036.13
2018-09-17T20:16:52.552Z,101042.66
2018-09-17T20:19:21.430Z,101033.25
2018-09-17T20:21:50.293Z,101030.38
2018-09-17T20:24:19.198Z,101031.28
2018-09-17T20:26:48.170Z,101028.41
2018-09-17T20:29:17.074Z,101029.39
2018-09-17T20:31:45.972Z,101032.82
2018-09-17T20:34:14.846Z,101027.34
2018-09-17T20:36:43.757Z,101029.27
2018-09-17T20:39:12.646Z,101020.54
2018-09-17T20:41:41.535Z,101032.00
2018-09-17T20:44:10.395Z,101028.23
2018-09-17T20:46:39.306Z,101018.31
2018-09-17T20:49:08.219Z,101015.58
2018-09-17T20:51:37.040Z,101019.94
2018-09-17T20:54:05.920Z,101011.47
2018-09-17T20:56:34.780Z,101002.61
2018-09-17T20:59:03.705Z,101003.13
2018-09-17T21:01:32.743Z,101001.96
2018-09-17T21:04:01.485Z,101001.82
2018-09-17T21:06:30.333Z,101000.63
2018-09-17T21:08:59.234Z,100997.41
2018-09-17T21:11:28.110Z,100996.89
2018-09-17T21:13:57.041Z,100996.03
2018-09-17T21:16:25.892Z,100988.83
2018-09-17T21:18:54.824Z,100993.61
2018-09-17T21:21:23.656Z,100988.11
2018-09-17T21:23:52.522Z,100983.53
2018-09-17T21:26:21.372Z,100977.25
2018-09-17T21:28:50.275Z,100977.93
2018-09-17T21:31:19.193Z,100970.41
2018-09-17T21:33:48.079Z,100967.67
2018-09-17T21:36:16.881Z,100970.06
2018-09-17T21:38:45.734Z,100971.59
2018-09-17T21:41:14.596Z,100964.59
2018-09-17T21:43:43.518Z,100963.78
2018-09-17T21:46:12.760Z,100958.68
2018-09-17T21:48:41.766Z,100956.47
2018-09-17T21:51:10.595Z,100963.14
2018-09-17T21:53:39.465Z,100959.75
2018-09-17T21:56:08.356Z,100956.36
2018-09-17T21:58:37.301Z,100952.77
2018-09-17T22:01:06.224Z,100952.94
2018-09-17T22:03:35.839Z,100955.23
2018-09-17T22:06:04.677Z,100947.81
2018-09-17T22:08:33.579Z,100939.43
2018-09-17T22:11:02.554Z,100945.11
2018-09-17T22:13:31.458Z,100943.53
2018-09-17T22:16:00.344Z,100949.07
2018-09-17T22:18:29.203Z,100942.23
2018-09-17T22:20:58.085Z,100942.19
2018-09-17T22:23:27.019Z,100940.86
2018-09-17T22:25:55.869Z,100930.55
2018-09-17T22:28:24.766Z,100936.89
2018-09-17T22:30:53.671Z,100920.83
2018-09-17T22:33:22.569Z,100924.10
2018-09-17T22:35:51.469Z,100921.20
2018-09-17T22:38:20.424Z,100922.42
2018-09-17T22:40:49.287Z,100924.47
2018-09-17T22:43:18.144Z,100919.19
2018-09-17T22:45:47.004Z,100917.83
2018-09-17T22:48:15.885Z,100913.73
2018-09-17T22:50:44.800Z,100910.97
2018-09-17T22:53:13.663Z,100908.41
2018-09-17T22:55:42.534Z,100896.08
2018-09-17T22:58:11.503Z,100898.61
2018-09-17T23:00:40.337Z,100895.36
2018-09-17T23:03:09.219Z,100888.17
2018-09-17T23:05:38.087Z,100890.23
2018-09-17T23:08:06.924Z,100892.96
2018-09-17T23:10:35.810Z,100898.05
2018-09-17T23:13:04.673Z,100887.11
2018-09-17T23:15:33.577Z,100884.03
2018-09-17T23:18:02.587Z,100887.28
2018-09-17T23:20:31.406Z,100880.27
2018-09-17T23:23:00.350Z,100885.02
2018-09-17T23:25:29.188Z,100874.63
2018-09-17T23:27:58.045Z,100872.88
2018-09-17T23:30:26.952Z,100867.44
2018-09-17T23:32:55.864Z,100867.44
2018-09-17T23:35:24.704Z,100864.55
2018-09-17T23:37:53.563Z,100859.36
2018-09-17T23:40:22.447Z,100848.76
2018-09-17T23:42:51.314Z,100844.52
2018-09-17T23:45:20.182Z,100845.89
2018-09-17T23:47:49.041Z,100845.72
2018-09-17T23:50:17.892Z,100852.27
2018-09-17T23:52:46.752Z,100845.27
2018-09-17T23:55:15.638Z,100853.64
2018-09-17T23:57:44.505Z,100853.84
